KMHL/MHL METAR and TAF weather

Enter ICAO airport designator
Station Type Date Time Source
KMHL METAR 2021/05/14 12:35 UTC NOAA

KMHL 141235Z AUTO 13004KT 10SM CLR 10/04 A3031 RMK AO2


Station Type Date Time Source
KMHL Decoded METAR 2021/05/14 12:35 UTC NOAA

Station name not available
May 14, 2021 - 08:35 AM EDT / 2021.05.14 1235 UTC
Wind: from the SE (130 degrees) at 5 MPH (4 KT):0
Visibility: 10 mile(s):0
Sky conditions: clear
Temperature: 50 F (10 C)
Dew Point: 39 F (4 C)
Relative Humidity: 66%
Pressure (altimeter): 30.31 in. Hg (1026 hPa)
ob: KMHL 141235Z AUTO 13004KT 10SM CLR 10/04 A3031 RMK AO2
cycle: 12

Station Type Date Time Source
KMHL TAF UTC NOAA

Error!

Example: see airport list